Dato Shengelia

Baş Scout - Saburtalo
3 Ara 2028
Pazar
İşlem

Kişilik

Uyum (10) Hırs (4) Tartışma (1) Sadakat (11) Baskı (4) Profesyonellik (13) Sportmenlik (15) Mizaç (13)

Profil

Antrenörlük Tarzı Demokratik
Lisans Kıtasal B
Kararlılık 4
İnsan Yönetimi 9
Motivasyon 7
Disiplin 3
İş Memnuniyeti
100%
Yorgunluk
0%
Görev Baş Scout
Maaş 37.3K h/h
Sözleşme 14.03.2029

Performans

Davranış İyi
Antrenman Etkinliği
24%
Oyuncu Gelişimi
50%
Sakatlık Önleme
20%
Taktik Uygulama
25%

Son Olaylar

Oyuncu izleme toplantısına katıldı şimdi
Oyuncu izleme toplantısına katıldı şimdi
Bir oyuncu değerlendirdi şimdi
Oyuncu izleme toplantısına katıldı 7gün önce
Oyuncu izleme toplantısına katıldı 7gün önce
Bir oyuncu değerlendirdi 7gün önce
Bir oyuncu değerlendirdi 7gün önce
Bir oyuncu değerlendirdi 7gün önce

Şu Anda İzliyor

146
Oyuncu Kulüp Durum Yetenek Güven İzlendi Son Gözlem Son Oy
Facundo Krüger Temperley Aktif 108 / 130 40% 8 02.12.2028 -
Gianluca Pugliese Güemes Aktif 98 / 107 40% 7 02.12.2028 -
Jerónimo Porto Lapegüe San Telmo Aktif 92 / 118 40% 4 01.12.2028 -
Nicolás Medina Atlanta Aktif 99 / 126 40% 2 30.11.2028 -
Tomás Blanco Estudiantes Aktif 124 / 128 40% 2 30.11.2028 -
Sebastián Cocimano Nueva Chicago Aktif 108 / 101 40% 4 26.11.2028 -
Antony Alonso Deportivo Riestra Aktif 129 / 135 40% 2 22.11.2028 -
Lisandro Cabrera Maipú Aktif 119 / 118 40% 5 21.11.2028 -
Genaro Rossi San Martín SJ Aktif 126 / 122 40% 4 21.11.2028 -
Julen Cordero Samtredia Aktif 108 / 92 48% 2 18.11.2028 -
Luca Franco Arsenal Aktif 123 / 94 40% 2 18.11.2028 -
Augusto Berrondo Tristán Suárez Aktif 110 / 121 40% 4 16.11.2028 -
Chimobi Igwilo Rangers International Aktif 103 / 92 40% 6 12.11.2028 -
Dylan Cabral Arsenal Aktif 93 / 94 40% 1 12.11.2028 -
Elías Ayala Madryn Aktif 125 / 110 40% 1 10.11.2028 -
Santiago Sala Güemes Aktif 120 / 129 40% 3 09.11.2028 -
Joaquín Zappacosta Morón Aktif 110 / 99 40% 3 09.11.2028 -
Juan Rocca Gimnasia y Tiro Aktif 125 / 109 40% 1 08.11.2028 -
Juan David Rueda Alianza Petrolera Aktif 101 / 118 40% 6 02.11.2028 -
José Barreto Quilmes Aktif 109 / 114 40% 5 02.11.2028 -
Gonzalo Flores Almirante Brown Aktif 117 / 132 40% 2 31.10.2028 -
Gustavo Viera Cerro Largo Aktif 125 / 98 40% 1 30.10.2028 -
Bruno Miño Almirante Brown Aktif 118 / 96 40% 1 27.10.2028 -
Renzo Conechny Tristán Suárez Aktif 122 / 127 40% 3 26.10.2028 -
Lorenzo Barrera Agropecuario Argentino Aktif 106 / 77 40% 2 26.10.2028 -
Daniel Barrea Godoy Cruz Aktif 131 / 130 40% 4 25.10.2028 -
Renzo Reynaga Patronato Aktif 112 / 88 40% 1 25.10.2028 -
Favio Cabral Mitre Aktif 119 / 121 40% 1 22.10.2028 -
Clemente Montes Santiago Wanderers Aktif 125 / 138 40% 3 19.10.2028 -
Ibrahim Yahaya Barau Aktif 76 / 71 40% 1 19.10.2028 -
Camilo Machado Madryn Aktif 130 / 120 40% 3 18.10.2028 -
Germán Cervera Alvarado Aktif 118 / 97 40% 1 18.10.2028 -
Matías Sosa Arsenal Aktif 105 / 120 40% 6 14.10.2028 -
Marco Miori Alvarado Aktif 102 / 94 40% 4 06.10.2028 -
Franco Ayunta Temperley Aktif 115 / 99 40% 1 04.10.2028 -
Tomás Jerez San Miguel Aktif 89 / 125 40% 1 04.10.2028 -
Joseph Arumala Ikorodu City Aktif 97 / 114 40% 2 03.10.2028 -
Alao Dabani Nasarawa United Aktif 104 / 95 40% 2 01.10.2028 -
Kabiru Abdullahi Barau Aktif 105 / 74 40% 1 30.09.2028 -
Lucas Pedraza Defensores Unidos Aktif 90 / 96 40% 1 19.09.2028 -
Davit Gotsiridze Kolkheti Aktif 100 / 97 40% 1 15.09.2028 -
Agustín Gallo Tristán Suárez Aktif 118 / 109 40% 1 13.09.2028 -
Sebastián Marfort Racing Aktif 97 / 82 40% 1 12.09.2028 -
Mauro Valiente Estudiantes Aktif 119 / 115 40% 1 11.09.2028 -
Enzo González Defensores Aktif 111 / 122 40% 1 05.09.2028 -
Bashar Musa US Forces Armees Aktif 102 / 113 40% 3 26.08.2028 -
Youssef Dalouzi Renaissance Aktif 103 / 119 40% 2 22.08.2028 -
Bruno Scorza La Luz Görüşülüyor 89 / 118 40% 1 12.08.2028 -
Lorenzo De Leo Renate Aktif 93 / 130 40% 1 12.08.2028 -
Andrew Dallas Sambenedettese Aktif 117 / 78 40% 2 11.08.2028 -
Francesco Petito Dolomiti Bellunesi Aktif 123 / 90 40% 3 10.08.2028 -
Alan Cisnero Exeter City Aktif 104 / 118 40% 2 08.08.2028 -
Alassana Jatta Notts County Aktif 111 / 135 40% 4 06.08.2028 -
Michele Emmausso Cosenza Aktif 110 / 124 40% 1 06.08.2028 -
Guillaume Furrer Lecco Aktif 117 / 120 40% 3 05.08.2028 -
Gianluca D'Auria Potenza Aktif 130 / 85 40% 3 05.08.2028 -
Ismail Achik Salernitana Aktif 115 / 124 40% 3 04.08.2028 -
Aaron Drinan Swindon Town Aktif 112 / 128 40% 1 04.08.2028 -
Rushian Hepburn-Murphy Milton Keynes Dons Aktif 124 / 98 40% 2 30.07.2028 -
Dani Ángel Sampdoria Aktif 107 / 99 40% 3 29.07.2028 -
Gennaro Tutino Sampdoria Aktif 136 / 127 40% 4 29.07.2028 -
Giacomo Zecca Torres Aktif 115 / 111 40% 4 28.07.2028 -
Danny Butterworth Accrington Stanley Aktif 97 / 97 40% 3 28.07.2028 -
Facundo Lescano Salernitana Aktif 105 / 107 40% 3 25.07.2028 -
Marco Zunno Crotone Aktif 106 / 113 40% 1 25.07.2028 -
Luca Vido Union Brescia Aktif 123 / 133 40% 3 24.07.2028 -
Will Davies Fleetwood Town Aktif 117 / 111 40% 1 24.07.2028 -
Anthony Scully Shrewsbury Town Aktif 111 / 111 40% 4 22.07.2028 -
Kylian Kouassi Colchester United Aktif 103 / 90 40% 1 22.07.2028 -
Avtandil Zivzivadze Zugdidi Aktif 65 / 76 48% 1 17.07.2028 -
Amar Yasser Chikhura Aktif 86 / 73 48% 1 12.06.2028 -
Fabián Muñoz Dinamo Batumi Aktif 95 / 106 48% 1 02.06.2028 İzle
Joshua Ajala Walsall Aktif 110 / 126 40% 1 30.05.2028 -
Fábio Jaló Barnsley Aktif 97 / 95 40% 4 29.05.2028 -
Vyacheslav Grulev Nizhniy Novgorod Aktif 110 / 104 40% 7 27.05.2028 -
Timur Suleimanov Nizhniy Novgorod Aktif 138 / 139 40% 1 26.05.2028 -
Jack Vale Sorrento Aktif 84 / 86 40% 3 23.05.2028 -
Miloš Bočić Altamura Aktif 101 / 108 40% 2 16.05.2028 -
Mattia Tordini Crotone Aktif 100 / 106 40% 2 14.05.2028 -
Leandro Antunes Al-Riyadh Aktif 104 / 110 40% 6 08.05.2028 -
Luca Mazzeo Picerno Aktif 121 / 124 40% 1 05.05.2028 -
Paolo Yrizar Chernomorets Aktif 92 / 96 40% 3 29.04.2028 -
Alexandr Saplinov Volga Aktif 116 / 115 40% 1 26.04.2028 -
Matty Stevens AFC Wimbledon Aktif 124 / 105 40% 2 21.04.2028 -
Seb Palmer-Houlden Gillingham Aktif 96 / 86 40% 1 21.04.2028 -
Hakeeb Adelakun Doncaster Rovers Aktif 127 / 125 40% 1 20.04.2028 -
Nicolò Bruschi Ternana Aktif 104 / 98 40% 1 18.04.2028 -
Tyrese Shade Burton Albion Aktif 87 / 88 40% 1 16.04.2028 -
Louis Appéré Cambridge United Aktif 90 / 113 40% 2 14.04.2028 -
Igor Neves Paysandu Aktif 100 / 124 40% 1 08.04.2028 -
Matija Popović Fakel Aktif 130 / 128 40% 1 08.04.2028 -
Miguel Falé Pacos de Ferreira Aktif 120 / 100 40% 1 07.04.2028 -
John Kelly Fleetwood Town Aktif 76 / 73 40% 1 04.04.2028 -
Tyler Walton Bromley Aktif 100 / 89 40% 1 04.04.2028 -
Juan Pablo Otálvaro Dinamo Batumi Aktif 95 / 87 48% 1 17.01.2028 -
Davit Kvaratskhelia Zugdidi Aktif 72 / 84 48% 1 10.01.2028 -
Jason Al-Fayha Aktif 129 / 101 40% 1 14.06.2027 -
Yakou Meïté Damac Aktif 117 / 92 40% 6 31.05.2027 -
Lars Veldwijk Aktif 83 / 74 40% 2 18.05.2027 -
Mamadou Sylla Al-Riyadh Aktif 144 / 105 40% 3 17.05.2027 -
Martin Sekulić Ural Aktif 101 / 102 40% 3 16.05.2027 -
Stanislav Biblyk Chaika Aktif 106 / 112 40% 3 13.05.2027 -
Ruslan Apekov Torpedo Moscow Aktif 104 / 104 40% 4 09.05.2027 -
Víctor Guzmán Sporting CP Aktif 91 / 90 40% 3 25.04.2027 -
Amur Kalmykov Spartak Kostroma Aktif 101 / 98 40% 5 23.04.2027 -
Prince Ibara Al-Njoom Aktif 96 / 114 40% 1 05.04.2027 -
Tenton Yenne Baltika Aktif 95 / 124 40% 3 04.04.2027 -
Evgeny Voronin Volga Aktif 92 / 74 40% 2 02.04.2027 -
Georgy Melkadze Akhmat Grozny Aktif 118 / 103 40% 1 02.04.2027 -
Kamran Aliev SKA Khabarovsk Aktif 96 / 115 40% 2 31.03.2027 -
Vladimir Khubulov Dinamo Makhachkala Aktif 110 / 104 40% 1 27.03.2027 -
Magomed Nasibov Pobeda Aktif 73 / 101 40% 1 27.03.2027 -
Tobías Dieni Ryazan Aktif 76 / 57 40% 1 24.03.2027 -
Merabi Uridia Fakel Aktif 95 / 108 40% 1 17.03.2027 -
Ilja Safronov Rotor Aktif 118 / 78 40% 3 05.03.2027 -
Simy Al-Orobah Aktif 101 / 123 40% 1 05.03.2027 -
Timofey Shipunov Ufa Aktif 84 / 84 40% 1 18.01.2027 -
Robert Murić Floriana Aktif 85 / 125 40% 1 14.01.2027 -
Chinonso Offor Baltika Aktif 94 / 121 40% 1 29.12.2026 -
Yeangel Montero Naxxar Lions Aktif 98 / 94 40% 5 28.12.2026 -
Rashid Magomedov Neftekhimik Aktif 74 / 90 40% 4 27.12.2026 -
Franklin Sasere Birkirkara Aktif 108 / 81 40% 1 25.12.2026 -
Daniil Kondrakov KDV Tomsk Aktif 77 / 96 40% 1 25.12.2026 -
Daniil Agureev Amkar Aktif 81 / 107 40% 2 21.12.2026 -
Job Ochieng Real Sociedad Aktif 115 / 125 40% 4 14.12.2026 -
Vladislav Sarveli Nizhniy Novgorod Aktif 98 / 128 40% 1 14.12.2026 -
Damir Céter Hamrun Spartans Aktif 86 / 82 40% 5 09.12.2026 -
Brayan Gil Baltika Aktif 138 / 141 40% 1 02.12.2026 -
Brandon Hanlan Doncaster Rovers Aktif 101 / 78 40% 4 30.11.2026 -
Isaac Matondo Koper Aktif 123 / 85 40% 4 28.11.2026 -
Stephen Humphrys Bradford City Aktif 111 / 122 40% 3 26.11.2026 -
Will Swan Bradford City Aktif 82 / 115 40% 4 25.11.2026 -
Shota Shekiladze Dila Aktif 120 / 102 40% 1 21.11.2026 -
Sam Nombe Milton Keynes Dons Aktif 89 / 86 40% 2 20.11.2026 -
Sergio Riffo Kolkheti Reddedildi 98 / 94 40% 3 19.11.2026 Reddet
Renat Garayev AZAL Aktif 108 / 105 40% 1 16.11.2026 -
Jáder Valencia Deportes Tolima Aktif 93 / 99 40% 3 15.11.2026 -
Marcelo Torres Gimnasia La Plata Aktif 133 / 132 40% 1 28.10.2026 -
Marcus Mehnert Stromsgodset Aktif 83 / 97 40% 1 26.10.2026 -
Albin Andersson Falkenberg Aktif 99 / 100 40% 2 23.10.2026 -
Luciano Inverso Betis Aktif 123 / 129 40% 1 08.10.2026 -
Javohir Esonqulov Merani Aktif 108 / 107 40% 1 05.10.2026 -
Davit Samurkasovi Samtredia Aktif 93 / 94 48% 1 31.08.2026 -
Agustín Bianciotti Metropolitanos Aktif 90 / 111 40% 1 31.08.2026 -
Tomás Fernández Aldosivi Aktif 137 / 138 40% 1 02.08.2026 -
Gustavo Velázquez Cerro Porteno Aktif 144 / 128 40% 1 01.08.2026 -